Data for 11/07/2018

Time Sea-Level Adjusted Pressure Absolute Pressure Temperature Relative Humidity Dew Point   
(mb) (inHg) (mb) (inHg) (C) (F) (%) (C) (F)
00:05 1021 30.15 850 25.1 -2.5 27.4 92 -3.7 25.4
00:10 1021 30.15 850 25.1 -2.6 27.4 92 -3.7 25.3
00:15 1021 30.15 850 25.1 -2.6 27.4 92 -3.7 25.3
00:20 1021 30.15 850 25.1 -2.6 27.3 92 -3.8 25.2
00:25 1021 30.15 850 25.1 -2.7 27.2 92 -3.8 25.1
00:30 1021 30.15 850 25.1 -2.8 26.9 92 -3.9 24.9
00:35 1021 30.15 850 25.1 -2.9 26.7 92 -4 24.8
00:40 1021 30.15 850 25.1 -2.9 26.7 93 -4 24.8
00:45 1021 30.15 850 25.1 -3 26.6 93 -4 24.7
00:50 1021 30.15 850 25.1 -3.1 26.5 93 -4.1 24.6
00:55 1021 30.15 850 25.1 -3.1 26.4 93 -4.1 24.6
01:00 1021 30.15 850 25.1 -3.2 26.2 93 -4.2 24.4
01:05 1021 30.15 850 25.1 -3.2 26.2 93 -4.3 24.3
01:10 1021 30.15 850 25.1 -3.3 26.2 93 -4.3 24.3
01:15 1021 30.15 850 25.1 -3.3 26.1 93 -4.3 24.3
01:20 1021 30.15 850 25.1 -3.3 26 93 -4.3 24.2
01:25 1021 30.15 850 25.1 -3.3 26 93 -4.4 24.2
01:30 1021 30.15 850 25.1 -3.4 25.8 93 -4.5 24
01:35 1020 30.12 850 25.1 -3.5 25.7 93 -4.5 23.8
01:40 1020 30.12 850 25.1 -3.5 25.7 93 -4.6 23.8
01:45 1020 30.12 850 25.1 -3.6 25.5 92 -4.7 23.6
01:50 1020 30.12 850 25.1 -3.7 25.3 92 -4.8 23.4
01:55 1020 30.12 850 25.1 -3.8 25.2 92 -4.8 23.3
02:00 1020 30.12 850 25.1 -3.8 25.1 92 -4.9 23.2
02:05 1020 30.12 850 25.1 -3.9 25 92 -4.9 23.1
02:10 1020 30.12 850 25.1 -3.9 25 92 -4.9 23.1
02:15 1020 30.12 850 25.1 -3.8 25.1 93 -4.8 23.3
02:20 1021 30.15 850 25.1 -3.6 25.4 93 -4.6 23.7
02:25 1021 30.15 850 25.1 -3.5 25.6 93 -4.5 23.8
02:30 1021 30.15 850 25.1 -3.5 25.8 93 -4.4 24
02:35 1021 30.15 850 25.1 -3.4 25.9 93 -4.4 24.1
02:40 1021 30.15 850 25.1 -3.5 25.7 93 -4.5 24
02:45 1021 30.15 850 25.1 -3.4 25.9 93 -4.3 24.2
02:50 1021 30.15 850 25.1 -3.3 26.1 93 -4.2 24.4
02:55 1020 30.12 850 25.1 -3.4 25.9 93 -4.3 24.2
03:00 1020 30.12 850 25.1 -3.5 25.7 93 -4.5 23.9
03:05 1020 30.12 850 25.1 -3.6 25.5 93 -4.5 23.8
03:10 1020 30.12 850 25.1 -3.7 25.3 93 -4.7 23.5
03:15 1020 30.12 850 25.1 -4.4 24.2 92 -5.4 22.3
03:20 1020 30.12 850 25.1 -4.7 23.6 93 -5.7 21.8
03:25 1020 30.12 850 25.1 -4.6 23.8 93 -5.5 22
03:30 1020 30.12 849 25.07 -4.5 23.8 93 -5.5 22
03:35 1020 30.12 849 25.07 -4.7 23.6 92 -5.7 21.7
03:40 1020 30.12 849 25.07 -4.6 23.7 93 -5.6 21.9
03:45 1020 30.12 849 25.07 -4.6 23.7 93 -5.6 21.9
03:50 1020 30.12 850 25.1 -4.6 23.8 93 -5.5 22
03:55 1020 30.12 849 25.07 -4.4 24.1 93 -5.4 22.2
04:00 1020 30.12 849 25.07 -4.5 23.9 92 -5.6 22
04:05 1020 30.12 849 25.07 -4.5 23.8 92 -5.6 21.9
04:10 1020 30.12 849 25.07 -4.6 23.8 92 -5.7 21.8
04:15 1020 30.12 850 25.1 -4.6 23.7 92 -5.7 21.8
04:20 1020 30.12 850 25.1 -4.6 23.8 92 -5.6 21.8
04:25 1020 30.12 849 25.07 -4.5 23.9 92 -5.6 21.9
04:30 1020 30.12 849 25.07 -4.6 23.6 92 -5.8 21.6
04:35 1020 30.12 849 25.07 -4.8 23.4 92 -5.9 21.3
04:40 1020 30.12 850 25.1 -4.9 23.2 92 -6.1 21.1
04:45 1020 30.12 849 25.07 -4.9 23.1 92 -6 21.1
04:50 1020 30.12 849 25.07 -4.9 23.2 92 -6 21.1
04:55 1020 30.12 849 25.07 -5 23 92 -6.1 21
05:00 1020 30.12 849 25.07 -4.9 23.1 92 -6.1 21.1
05:05 1020 30.12 849 25.07 -4.9 23.2 92 -6 21.2
05:10 1020 30.12 849 25.07 -4.9 23.2 92 -6 21.2
05:15 1020 30.12 849 25.07 -4.9 23.2 92 -6 21.2
05:20 1020 30.12 849 25.07 -4.9 23.3 92 -6 21.3
05:25 1020 30.12 849 25.07 -4.8 23.3 92 -6 21.3
05:30 1020 30.12 849 25.07 -4.8 23.4 92 -5.9 21.4
05:35 1020 30.12 849 25.07 -4.8 23.4 92 -5.8 21.5
05:40 1020 30.12 849 25.07 -4.6 23.6 92 -5.7 21.7
05:45 1020 30.12 849 25.07 -4.8 23.4 92 -5.9 21.4
05:50 1020 30.12 849 25.07 -4.9 23.2 92 -6 21.1
05:55 1020 30.12 849 25.07 -5 23.1 92 -6.1 21
06:00 1020 30.12 849 25.07 -4.9 23.1 91 -6.1 21
06:05 1020 30.12 849 25.07 -4.9 23.1 91 -6.2 20.9
06:10 1020 30.12 849 25.07 -4.9 23.2 91 -6.1 20.9
06:15 1020 30.12 849 25.07 -4.8 23.3 91 -6 21.1
06:20 1020 30.12 849 25.07 -4.8 23.4 92 -6 21.3
06:25 1020 30.12 849 25.07 -4.7 23.5 91 -5.9 21.3
06:30 1020 30.12 849 25.07 -4.8 23.4 90 -6.1 21
06:35 1020 30.12 849 25.07 -4.9 23.2 91 -6.2 20.8
06:40 1020 30.12 849 25.07 -4.9 23.1 91 -6.2 20.9
06:45 1020 30.12 849 25.07 -4.7 23.6 91 -5.9 21.3
06:50 1020 30.12 849 25.07 -4.5 23.9 91 -5.8 21.6
06:55 1020 30.12 849 25.07 -4.4 24.1 91 -5.6 21.9
07:00 1020 30.12 849 25.07 -4.3 24.2 91 -5.6 21.9
07:05 1020 30.12 849 25.07 -4.6 23.8 92 -5.7 21.7
07:10 1020 30.12 849 25.07 -4.6 23.8 92 -5.6 21.8
07:15 1020 30.12 849 25.07 -4.4 24.1 92 -5.5 22.2
07:20 1020 30.12 849 25.07 -4.3 24.3 92 -5.3 22.4
07:25 1020 30.12 849 25.07 -4.3 24.2 92 -5.4 22.2
07:30 1020 30.12 849 25.07 -4.4 24 92 -5.5 22.1
07:35 1020 30.12 849 25.07 -4.5 23.9 92 -5.6 22
07:40 1020 30.12 849 25.07 -4.6 23.8 92 -5.6 21.9
07:45 1020 30.12 850 25.1 -4.6 23.8 93 -5.6 21.9
07:50 1020 30.12 850 25.1 -4.5 24 93 -5.5 22.2
07:55 1020 30.12 850 25.1 -4.2 24.4 93 -5.2 22.6
08:00 1021 30.15 850 25.1 -3.9 24.9 93 -4.9 23.1
08:05 1020 30.12 850 25.1 -3.8 25.1 92 -4.9 23.2
08:10 1021 30.15 850 25.1 -3.8 25.1 93 -4.8 23.3
08:15 1021 30.15 850 25.1 -3.7 25.3 92 -4.8 23.4
08:20 1021 30.15 850 25.1 -3.6 25.4 92 -4.7 23.5
08:25 1021 30.15 850 25.1 -3.6 25.5 92 -4.7 23.6
08:30 1021 30.15 850 25.1 -3.6 25.5 92 -4.7 23.5
08:35 1021 30.15 850 25.1 -3.6 25.6 92 -4.7 23.6
08:40 1021 30.15 850 25.1 -3.5 25.6 92 -4.7 23.6
08:45 1021 30.15 850 25.1 -3.6 25.5 92 -4.7 23.6
08:50 1021 30.15 850 25.1 -3.6 25.6 92 -4.7 23.5
08:55 1021 30.15 850 25.1 -3.7 25.4 92 -4.8 23.4
09:00 1021 30.15 850 25.1 -3.6 25.5 92 -4.7 23.5
09:05 1021 30.15 850 25.1 -3.5 25.7 92 -4.6 23.7
09:10 1021 30.15 850 25.1 -3.4 25.9 92 -4.6 23.8
09:15 1021 30.15 850 25.1 -3.3 26.1 92 -4.4 24.1
09:20 1021 30.15 850 25.1 -2.9 26.8 92 -4.1 24.7
09:25 1021 30.15 850 25.1 -2.8 27 90 -4.1 24.5
09:30 1021 30.15 850 25.1 -2.7 27.1 90 -4.1 24.5
09:35 1021 30.15 850 25.1 -2.6 27.2 90 -4.1 24.6
09:40 1021 30.15 850 25.1 -2.6 27.4 89 -4.1 24.6
09:45 1021 30.15 850 25.1 -2.5 27.4 88 -4.2 24.4
09:50 1021 30.15 850 25.1 -2.8 27 88 -4.5 23.9
09:55 1021 30.15 850 25.1 -3.4 25.8 90 -4.8 23.3
10:00 1021 30.15 850 25.1 -3.5 25.7 91 -4.7 23.5
10:05 1021 30.15 850 25.1 -3.1 26.4 91 -4.4 24.1
10:10 1021 30.15 850 25.1 -2.9 26.8 90 -4.3 24.3
10:15 1021 30.15 850 25.1 -2.7 27.1 89 -4.2 24.4
10:20 1021 30.15 850 25.1 -2.6 27.3 88 -4.3 24.2
10:25 1021 30.15 850 25.1 -2.4 27.6 88 -4.2 24.4
10:30 1021 30.15 850 25.1 -2.5 27.6 88 -4.2 24.4
10:35 1021 30.15 850 25.1 -2.3 27.8 87 -4.2 24.4
10:40 1021 30.15 850 25.1 -2.7 27.2 87 -4.5 23.9
10:45 1021 30.15 850 25.1 -2.9 26.8 88 -4.5 23.8
10:50 1021 30.15 850 25.1 -2.9 26.9 89 -4.4 24
10:55 1021 30.15 850 25.1 -2.5 27.4 87 -4.4 24.2
11:00 1021 30.15 850 25.1 -2.5 27.5 88 -4.3 24.3
11:05 1021 30.15 850 25.1 -2.1 28.2 84 -4.5 23.9
11:10 1021 30.15 850 25.1 -2.1 28.2 85 -4.3 24.2
11:15 1021 30.15 850 25.1 -1.7 28.9 83 -4.2 24.4
11:20 1021 30.15 850 25.1 -1.8 28.7 85 -4.1 24.7
11:25 1021 30.15 850 25.1 -1.8 28.7 85 -4 24.8
11:30 1021 30.15 850 25.1 -1.9 28.5 86 -3.9 24.9
11:35 1021 30.15 850 25.1 -1.9 28.6 86 -3.9 25
11:40 1021 30.15 850 25.1 -1.8 28.8 85 -3.9 24.9
11:45 1021 30.15 850 25.1 -1.8 28.8 85 -4 24.7
11:50 1021 30.15 850 25.1 -2.1 28.3 86 -4.1 24.7
11:55 1021 30.15 850 25.1 -2.2 28.1 87 -4.1 24.7
12:00 1021 30.15 850 25.1 -2.3 27.9 87 -4.1 24.7
12:05 1021 30.15 850 25.1 -2.4 27.6 88 -4.2 24.4
12:10 1021 30.15 850 25.1 -2.4 27.6 88 -4.1 24.5
12:15 1021 30.15 850 25.1 -2.2 28 87 -4.1 24.7
12:20 1021 30.15 850 25.1 -2.1 28.2 87 -4 24.8
12:25 1021 30.15 850 25.1 -2.1 28.3 86 -4.1 24.6
12:30 1021 30.15 850 25.1 -2.3 27.9 87 -4.2 24.5
12:35 1021 30.15 850 25.1 -2.3 27.8 87 -4.3 24.3
12:40 1021 30.15 850 25.1 -2.4 27.7 87 -4.2 24.4
12:45 1021 30.15 850 25.1 -2.1 28.1 85 -4.3 24.3
12:50 1021 30.15 850 25.1 -2.1 28.2 85 -4.3 24.3
12:55 1021 30.15 850 25.1 -2.3 27.9 85 -4.4 24.1
13:00 1021 30.15 850 25.1 -2.6 27.4 87 -4.5 24
13:05 1021 30.15 850 25.1 -2.4 27.7 86 -4.4 24.1
13:10 1021 30.15 850 25.1 -2.2 28.1 85 -4.3 24.2
13:15 1021 30.15 850 25.1 -2.1 28.3 84 -4.4 24.1
13:20 1021 30.15 850 25.1 -2.1 28.2 84 -4.5 23.8
13:25 1021 30.15 850 25.1 -2.1 28.2 83 -4.6 23.7
13:30 1021 30.15 850 25.1 -2.2 28.1 84 -4.6 23.8
13:35 1021 30.15 850 25.1 -2.3 27.8 85 -4.4 24
13:40 1021 30.15 850 25.1 -2.2 28 84 -4.6 23.7
13:45 1021 30.15 850 25.1 -2.4 27.7 85 -4.6 23.8
13:50 1021 30.15 850 25.1 -2 28.5 83 -4.5 23.9
13:55 1021 30.15 850 25.1 -1.8 28.8 83 -4.3 24.2
14:00 1021 30.15 850 25.1 -1.9 28.5 84 -4.2 24.4
14:05 1021 30.15 850 25.1 -1.8 28.8 82 -4.5 24
14:10 1021 30.15 850 25.1 -1.8 28.8 82 -4.5 23.9
14:15 1021 30.15 850 25.1 -2 28.4 83 -4.5 23.9
14:20 1021 30.15 850 25.1 -2.2 28 85 -4.4 24.1
14:25 1021 30.15 850 25.1 -2.1 28.2 83 -4.6 23.7
14:30 1021 30.15 850 25.1 -2.1 28.2 84 -4.6 23.8
14:35 1021 30.15 850 25.1 -2 28.3 83 -4.5 23.9
14:40 1021 30.15 850 25.1 -2 28.3 84 -4.4 24
14:45 1021 30.15 850 25.1 -2.2 28.1 85 -4.4 24
14:50 1021 30.15 850 25.1 -2.3 27.9 85 -4.5 23.9
14:55 1021 30.15 850 25.1 -2.6 27.3 85 -4.7 23.5
15:00 1021 30.15 851 25.13 -2.7 27.1 86 -4.8 23.4
15:05 1021 30.15 851 25.13 -2.8 27 85 -4.9 23.1
15:10 1021 30.15 851 25.13 -2.9 26.8 85 -5.1 22.9
15:15 1021 30.15 851 25.13 -2.8 26.9 84 -5.1 22.8
15:20 1022 30.18 851 25.13 -3 26.6 85 -5.2 22.6
15:25 1022 30.18 851 25.13 -3 26.6 84 -5.4 22.4
15:30 1022 30.18 851 25.13 -3.2 26.2 85 -5.4 22.2
15:35 1022 30.18 851 25.13 -3.4 26 85 -5.5 22.1
15:40 1022 30.18 851 25.13 -3.4 25.9 86 -5.4 22.3
15:45 1022 30.18 851 25.13 -3.4 25.8 87 -5.2 22.6
15:50 1022 30.18 851 25.13 -3.5 25.7 88 -5.2 22.7
15:55 1022 30.18 851 25.13 -3.5 25.7 88 -5.2 22.6
16:00 1022 30.18 851 25.13 -3.5 25.6 89 -5.1 22.8
16:05 1022 30.18 851 25.13 -3.5 25.7 89 -5.1 22.8
16:10 1022 30.18 851 25.13 -3.6 25.6 89 -5.2 22.7
16:15 1022 30.18 851 25.13 -3.6 25.5 89 -5.2 22.7
16:20 1022 30.18 851 25.13 -3.6 25.5 89 -5.1 22.7
16:25 1022 30.18 851 25.13 -3.5 25.7 89 -5 22.9
16:30 1022 30.18 851 25.13 -3.5 25.7 89 -5 23
16:35 1022 30.18 851 25.13 -3.6 25.5 89 -5.2 22.6
16:40 1022 30.18 851 25.13 -3.9 25 89 -5.5 22.1
16:45 1022 30.18 851 25.13 -4.1 24.6 89 -5.7 21.7
16:50 1022 30.18 851 25.13 -4.2 24.4 88 -5.9 21.4
16:55 1022 30.18 851 25.13 -4.4 24.1 88 -6.2 20.9
17:00 1022 30.18 851 25.13 -4.6 23.7 87 -6.5 20.4
17:05 1022 30.18 851 25.13 -4.8 23.3 87 -6.7 19.9
17:10 1022 30.18 852 25.16 -5.1 22.8 87 -6.9 19.5
17:15 1022 30.18 852 25.16 -5.3 22.4 87 -7.2 19.1
17:20 1022 30.18 852 25.16 -5.5 22.1 87 -7.3 18.9
17:25 1022 30.18 852 25.16 -5.4 22.3 88 -7.1 19.2
17:30 1023 30.21 852 25.16 -5.3 22.4 88 -7 19.4
17:35 1023 30.21 852 25.16 -5.2 22.7 87 -7 19.4
17:40 1023 30.21 852 25.16 -5.2 22.7 87 -7 19.4
17:45 1023 30.21 852 25.16 -5.1 22.7 86 -7.1 19.2
17:50 1023 30.21 852 25.16 -5.2 22.7 86 -7.1 19.1
17:55 1023 30.21 852 25.16 -5.2 22.7 86 -7.2 19.1
18:00 1023 30.21 852 25.16 -5.2 22.6 86 -7.2 19.1
18:05 1023 30.21 852 25.16 -5.2 22.7 86 -7.2 19
18:10 1023 30.21 852 25.16 -5.3 22.4 85 -7.5 18.5
18:15 1023 30.21 852 25.16 -5.7 21.7 85 -7.9 17.8
18:20 1023 30.21 852 25.16 -5.8 21.5 86 -7.8 18
18:25 1023 30.21 852 25.16 -5.8 21.6 86 -7.8 18
18:30 1023 30.21 852 25.16 -5.7 21.7 86 -7.8 18
18:35 1023 30.21 852 25.16 -5.8 21.6 86 -7.8 18
18:40 1023 30.21 852 25.16 -5.9 21.5 87 -7.7 18.1
18:45 1023 30.21 852 25.16 -5.8 21.6 88 -7.4 18.6
18:50 1023 30.21 852 25.16 -5.6 21.9 88 -7.4 18.8
18:55 1023 30.21 852 25.16 -5.6 21.9 87 -7.4 18.7
19:00 1023 30.21 852 25.16 -5.6 22 88 -7.3 18.9
19:05 1023 30.21 852 25.16 -5.5 22.1 87 -7.3 18.9
19:10 1023 30.21 852 25.16 -5.5 22.1 87 -7.3 18.8
19:15 1023 30.21 852 25.16 -5.6 21.8 87 -7.5 18.6
19:20 1023 30.21 852 25.16 -5.8 21.6 87 -7.6 18.2
19:25 1023 30.21 852 25.16 -6 21.2 88 -7.7 18.1
19:30 1023 30.21 852 25.16 -6.1 21.1 87 -7.8 17.9
19:35 1023 30.21 852 25.16 -6.1 21 88 -7.8 18
19:40 1023 30.21 853 25.19 -6.2 20.9 88 -7.9 17.9
19:45 1023 30.21 853 25.19 -6.2 20.9 88 -7.9 17.8
19:50 1023 30.21 853 25.19 -6.2 20.8 88 -7.9 17.7
19:55 1023 30.21 853 25.19 -6.2 20.8 88 -8 17.7
20:00 1023 30.21 853 25.19 -6.2 20.8 87 -8 17.5
20:05 1023 30.21 853 25.19 -6.2 20.8 87 -8.1 17.4
20:10 1024 30.24 853 25.19 -6.3 20.6 86 -8.2 17.2
20:15 1023 30.21 853 25.19 -6.4 20.5 86 -8.4 16.9
20:20 1024 30.24 853 25.19 -6.5 20.3 86 -8.4 16.8
20:25 1024 30.24 853 25.19 -6.6 20.2 86 -8.5 16.7
20:30 1024 30.24 853 25.19 -6.5 20.3 86 -8.4 16.8
20:35 1024 30.24 853 25.19 -6.5 20.3 85 -8.5 16.6
20:40 1024 30.24 853 25.19 -6.6 20.1 86 -8.6 16.6
20:45 1024 30.24 853 25.19 -6.6 20.1 86 -8.6 16.6
20:50 1024 30.24 853 25.19 -6.7 20 86 -8.6 16.6
20:55 1024 30.24 853 25.19 -6.6 20.1 86 -8.5 16.7
21:00 1024 30.24 853 25.19 -6.6 20 87 -8.5 16.7
21:05 1024 30.24 853 25.19 -6.7 20 86 -8.6 16.5
21:10 1024 30.24 853 25.19 -6.7 19.9 86 -8.6 16.4
21:15 1024 30.24 853 25.19 -6.7 20 87 -8.6 16.6
21:20 1024 30.24 853 25.19 -6.7 19.9 87 -8.6 16.6
21:25 1024 30.24 853 25.19 -6.7 20 87 -8.4 16.8
21:30 1024 30.24 853 25.19 -6.6 20 87 -8.5 16.6
21:35 1024 30.24 853 25.19 -6.7 19.9 86 -8.6 16.5
21:40 1024 30.24 853 25.19 -6.8 19.8 86 -8.7 16.3
21:45 1024 30.24 853 25.19 -6.9 19.6 86 -8.8 16.2
21:50 1024 30.24 854 25.22 -6.8 19.8 86 -8.7 16.3
21:55 1024 30.24 854 25.22 -6.9 19.6 86 -8.9 16
22:00 1024 30.24 854 25.22 -6.8 19.7 85 -8.9 16
22:05 1024 30.24 854 25.22 -6.9 19.6 85 -8.9 15.9
22:10 1024 30.24 854 25.22 -6.9 19.5 86 -8.9 16.1
22:15 1025 30.27 854 25.22 -7 19.4 87 -8.8 16.2
22:20 1025 30.27 854 25.22 -6.9 19.7 86 -8.8 16.1
22:25 1025 30.27 854 25.22 -7 19.4 86 -8.9 15.9
22:30 1025 30.27 854 25.22 -7.1 19.3 87 -9 15.9
22:35 1025 30.27 854 25.22 -7.1 19.2 86 -9 15.8
22:40 1025 30.27 854 25.22 -7.1 19.2 87 -8.9 16
22:45 1025 30.27 854 25.22 -7 19.4 88 -8.7 16.3
22:50 1025 30.27 854 25.22 -6.9 19.5 87 -8.8 16.2
22:55 1025 30.27 854 25.22 -6.9 19.6 87 -8.7 16.4
23:00 1025 30.27 854 25.22 -6.9 19.6 87 -8.7 16.3
23:05 1025 30.27 854 25.22 -7 19.4 87 -8.8 16.2
23:10 1025 30.27 854 25.22 -6.9 19.5 88 -8.6 16.5
23:15 1025 30.27 854 25.22 -6.9 19.6 87 -8.7 16.4
23:20 1025 30.27 854 25.22 -6.9 19.5 88 -8.6 16.5
23:25 1025 30.27 854 25.22 -6.9 19.5 88 -8.6 16.5
23:30 1025 30.27 854 25.22 -7 19.5 88 -8.7 16.4
23:35 1025 30.27 854 25.22 -7 19.4 87 -8.8 16.2
23:40 1025 30.27 854 25.22 -7 19.3 87 -8.8 16.2
23:45 1025 30.27 854 25.22 -7 19.3 87 -8.9 16
23:50 1025 30.27 854 25.22 -7.1 19.2 87 -8.9 15.9
23:55 1025 30.27 855 25.25 -7.1 19.1 87 -8.9 16
24:00 1025 30.27 854 25.22 -7.1 19.1 88 -8.9 16.1